Time;durP1;ratioP1;P1;durP2;ratioP2;P2;SDS_P1;SDS_P2;PMS_P1;PMS_P2;Temp;Humidity;BMP_temperature;BMP_pressure;BME280_temperature;BME280_humidity;BME280_pressure;Samples;Min_cycle;Max_cycle;Signal;HPM_P1;HPM_P2
2023/04/20 00:01:31;;;;;;;24.60;22.23;;;;;;;9.55;60.75;100601.41;5012634;28;101173;-74
2023/04/20 00:03:56;;;;;;;23.77;21.33;;;;;;;9.47;60.95;100591.97;5005848;27;101541;-76
2023/04/20 00:06:24;;;;;;;21.38;19.30;;;;;;;9.51;61.07;100598.88;5011620;28;96830;-75
2023/04/20 00:08:49;;;;;;;22.17;20.15;;;;;;;9.47;61.05;100598.97;5014144;28;96806;-76
2023/04/20 00:11:15;;;;;;;21.73;19.55;;;;;;;9.35;61.33;100587.03;5012429;28;101162;-77
2023/04/20 00:13:40;;;;;;;22.65;20.50;;;;;;;9.48;61.00;100608.56;5030753;28;98610;-75
2023/04/20 00:16:06;;;;;;;22.58;20.48;;;;;;;9.48;60.68;100606.81;5010280;28;97400;-75
2023/04/20 00:18:31;;;;;;;22.27;20.17;;;;;;;9.37;61.12;100569.53;5042168;27;96796;-75
2023/04/20 00:20:57;;;;;;;22.88;20.58;;;;;;;9.44;61.03;100594.66;5036149;27;101515;-75
2023/04/20 00:23:23;;;;;;;23.92;21.48;;;;;;;9.27;61.33;100576.75;5046219;27;97327;-78
2023/04/20 00:25:50;;;;;;;23.15;20.85;;;;;;;9.32;60.78;100578.41;5025319;28;96880;-76
2023/04/20 00:28:15;;;;;;;22.17;20.17;;;;;;;9.46;61.55;100598.13;5026108;27;97517;-75
2023/04/20 00:30:41;;;;;;;23.40;21.25;;;;;;;9.47;61.19;100593.75;5032124;27;98060;-75
2023/04/20 00:33:06;;;;;;;23.15;20.80;;;;;;;9.41;61.16;100599.13;5030774;27;98425;-75
2023/04/20 00:35:33;;;;;;;23.33;21.10;;;;;;;9.40;61.21;100602.66;5013493;28;96923;-77
2023/04/20 00:37:58;;;;;;;22.58;20.48;;;;;;;9.33;61.47;100591.47;5005449;28;97313;-75
2023/04/20 00:40:24;;;;;;;24.00;21.75;;;;;;;9.40;61.30;100608.75;5044214;27;101965;-74
2023/04/20 00:42:50;;;;;;;22.63;20.55;;;;;;;9.39;61.30;100607.03;5045813;27;101087;-75
2023/04/20 00:45:15;;;;;;;23.17;21.08;;;;;;;9.29;61.09;100584.59;5029875;28;96834;-75
2023/04/20 00:47:41;;;;;;;23.10;20.83;;;;;;;9.25;61.37;100578.56;5029805;28;96797;-75
2023/04/20 00:50:07;;;;;;;22.83;20.75;;;;;;;9.41;61.03;100601.75;5012199;28;101546;-75
2023/04/20 00:52:33;;;;;;;22.83;20.75;;;;;;;9.46;61.55;100607.75;5029993;27;101614;-76
2023/04/20 00:54:58;;;;;;;22.58;20.58;;;;;;;9.36;61.48;100596.63;4986629;28;96934;-76
2023/04/20 00:57:24;;;;;;;23.13;20.98;;;;;;;9.32;61.40;100607.22;5008708;28;96877;-75
2023/04/20 00:59:50;;;;;;;22.20;19.98;;;;;;;9.39;61.04;100607.03;5013011;28;99523;-75
2023/04/20 01:02:17;;;;;;;22.55;20.55;;;;;;;9.31;61.21;100598.50;5054449;27;97882;-75
2023/04/20 01:04:45;;;;;;;21.90;19.88;;;;;;;9.26;61.46;100589.91;5035866;27;97272;-75
2023/04/20 01:07:10;;;;;;;22.52;20.50;;;;;;;9.38;61.64;100596.59;5045296;27;98320;-75
2023/04/20 01:09:38;;;;;;;22.50;20.50;;;;;;;9.39;61.61;100593.91;5028518;27;98201;-76
2023/04/20 01:12:06;;;;;;;22.73;20.52;;;;;;;9.37;61.32;100584.41;5010251;28;102523;-75
2023/04/20 01:14:31;;;;;;;22.42;20.42;;;;;;;9.39;62.08;100591.28;5009135;28;96751;-75
2023/04/20 01:16:57;;;;;;;22.77;20.67;;;;;;;9.27;61.60;100570.66;5027704;28;96882;-76
2023/04/20 01:19:23;;;;;;;22.85;20.77;;;;;;;9.36;61.86;100590.53;5009561;28;101384;-78
2023/04/20 01:21:49;;;;;;;23.02;20.90;;;;;;;9.27;61.31;100570.66;5009705;28;100798;-75
2023/04/20 01:24:15;;;;;;;22.13;20.23;;;;;;;9.34;61.77;100584.44;5013022;28;96694;-75
2023/04/20 01:26:40;;;;;;;22.15;20.02;;;;;;;9.18;61.57;100568.25;4995417;27;97146;-77
2023/04/20 01:29:06;;;;;;;22.95;20.90;;;;;;;9.29;61.64;100589.81;5007066;28;101463;-75
2023/04/20 01:31:31;;;;;;;21.83;20.00;;;;;;;9.25;61.51;100582.91;4992127;28;101570;-75
2023/04/20 01:33:57;;;;;;;23.20;21.10;;;;;;;9.33;61.37;100586.22;5011196;28;96870;-75
2023/04/20 01:36:23;;;;;;;22.08;20.05;;;;;;;9.27;61.57;100575.88;5029689;27;97148;-75
2023/04/20 01:38:48;;;;;;;22.77;20.83;;;;;;;9.30;61.57;100581.91;5014912;28;101119;-75
2023/04/20 01:41:14;;;;;;;22.77;20.73;;;;;;;9.29;62.00;100587.19;5016101;28;97779;-75
2023/04/20 01:43:40;;;;;;;22.75;20.70;;;;;;;9.23;61.72;100564.63;5012505;27;96943;-75
2023/04/20 01:46:05;;;;;;;21.63;19.77;;;;;;;9.35;61.66;100580.94;5032010;27;97165;-78
2023/04/20 01:48:31;;;;;;;23.10;21.10;;;;;;;9.30;62.18;100576.66;5015129;28;101718;-76
2023/04/20 01:50:57;;;;;;;22.23;20.33;;;;;;;9.27;62.23;100571.50;5049031;27;101234;-77
2023/04/20 01:53:24;;;;;;;22.33;20.35;;;;;;;9.19;61.60;100560.38;5012701;28;96897;-76
2023/04/20 01:55:50;;;;;;;23.08;21.08;;;;;;;9.26;62.06;100574.19;5029139;28;96790;-76
2023/04/20 01:58:16;;;;;;;22.40;20.40;;;;;;;9.28;61.34;100572.41;5011314;28;100982;-76
2023/04/20 02:00:41;;;;;;;23.67;21.77;;;;;;;9.22;62.42;100557.69;5011854;27;101961;-75
2023/04/20 02:03:07;;;;;;;23.38;21.33;;;;;;;9.16;61.87;100557.84;5043922;27;97872;-76
2023/04/20 02:05:33;;;;;;;24.60;22.35;;;;;;;9.27;62.56;100570.66;5004821;28;96953;-77
2023/04/20 02:07:59;;;;;;;22.38;20.45;;;;;;;9.20;62.24;100559.47;5047305;27;101326;-75
2023/04/20 02:10:24;;;;;;;23.05;20.95;;;;;;;9.23;62.36;100569.03;5016222;28;101904;-76
2023/04/20 02:12:50;;;;;;;23.48;21.38;;;;;;;9.27;62.05;100570.66;5032669;28;96846;-74
2023/04/20 02:15:15;;;;;;;22.90;20.73;;;;;;;9.25;61.97;100568.09;5032477;28;96813;-75
2023/04/20 02:17:42;;;;;;;23.80;21.60;;;;;;;9.25;62.30;100581.19;5029019;27;98640;-75
2023/04/20 02:20:09;;;;;;;22.67;20.70;;;;;;;9.22;62.39;100568.16;5046219;27;97928;-75
2023/04/20 02:22:36;;;;;;;22.95;20.95;;;;;;;9.30;62.25;100581.06;5015361;28;96779;-75
2023/04/20 02:25:03;;;;;;;22.98;21.05;;;;;;;9.07;62.73;100537.97;5014932;28;97264;-74
2023/04/20 02:27:30;;;;;;;23.83;21.83;;;;;;;9.22;62.34;100559.41;5028502;27;101693;-75
2023/04/20 02:29:56;;;;;;;22.88;20.83;;;;;;;9.17;62.47;100558.69;5061800;27;97883;-75
2023/04/20 02:32:21;;;;;;;23.13;21.02;;;;;;;9.18;62.22;100557.78;5015413;28;97401;-75
2023/04/20 02:34:48;;;;;;;25.02;22.80;;;;;;;9.22;61.98;100562.94;5010200;28;96806;-75
2023/04/20 02:37:13;;;;;;;23.85;21.58;;;;;;;9.18;61.82;100563.03;5012729;28;101922;-74
2023/04/20 02:39:40;;;;;;;23.13;20.92;;;;;;;9.21;62.16;100561.19;5014991;28;99274;-75
2023/04/20 02:42:06;;;;;;;24.23;21.25;;;;;;;9.23;61.98;100572.50;5031498;28;97283;-75
2023/04/20 02:44:32;;;;;;;24.88;22.27;;;;;;;9.18;62.06;100565.63;5015255;28;96930;-75
2023/04/20 02:46:57;;;;;;;23.35;21.35;;;;;;;9.20;62.05;100562.09;5014132;28;101309;-75
2023/04/20 02:49:24;;;;;;;23.13;20.80;;;;;;;9.20;62.32;100554.22;5042994;27;100666;-76
2023/04/20 02:51:50;;;;;;;23.60;21.50;;;;;;;9.15;62.36;100547.38;5011025;28;97418;-75
2023/04/20 02:54:15;;;;;;;23.70;21.60;;;;;;;9.19;62.33;100559.50;5023885;28;97049;-75
2023/04/20 02:56:41;;;;;;;23.33;21.35;;;;;;;9.17;62.17;100564.78;5030951;28;101457;-75
2023/04/20 02:59:09;;;;;;;23.25;21.25;;;;;;;9.17;62.29;100563.94;5015407;28;102218;-75
2023/04/20 03:01:42;;;;;;;25.55;22.90;;;;;;;9.19;62.08;100560.38;5016300;28;97475;-75
2023/04/20 03:04:20;;;;;;;23.33;21.20;;;;;;;9.10;62.05;100538.78;5016312;28;98186;-75
2023/04/20 03:06:53;;;;;;;23.70;21.48;;;;;;;9.17;62.36;100559.56;5009784;27;101648;-75
2023/04/20 03:09:24;;;;;;;24.95;22.60;;;;;;;9.09;62.05;100547.53;5041525;27;101495;-76
2023/04/20 03:11:57;;;;;;;23.25;21.25;;;;;;;9.12;62.17;100558.78;5042566;27;96780;-75
2023/04/20 03:14:46;;;;;;;23.75;21.55;;;;;;;9.13;62.22;100557.03;5019844;28;97427;-75
2023/04/20 03:17:11;;;;;;;24.10;22.00;;;;;;;9.14;62.25;100564.00;5000429;28;100282;-75
2023/04/20 03:19:37;;;;;;;23.77;21.63;;;;;;;9.18;61.97;100566.50;5011889;28;101948;-74
2023/04/20 03:22:04;;;;;;;24.48;22.35;;;;;;;9.20;61.79;100566.47;5013453;27;98457;-81
2023/04/20 03:24:30;;;;;;;25.42;22.02;;;;;;;9.12;62.45;100557.94;5031521;27;97261;-75
2023/04/20 03:26:59;;;;;;;24.30;22.10;;;;;;;9.16;62.38;100562.19;5013484;28;102009;-82
2023/04/20 03:29:40;;;;;;;24.15;22.05;;;;;;;8.92;62.12;100529.59;5031542;28;98377;-75
2023/04/20 03:32:05;;;;;;;25.92;22.45;;;;;;;9.13;62.41;100564.88;5013373;28;97455;-76
2023/04/20 03:34:31;;;;;;;24.83;22.52;;;;;;;9.11;62.32;100564.09;5014312;28;97416;-75
2023/04/20 03:36:57;;;;;;;24.00;21.80;;;;;;;9.12;61.95;100557.94;5013773;28;100823;-75
2023/04/20 03:39:23;;;;;;;23.35;21.08;;;;;;;9.16;62.39;100562.19;5030362;28;101202;-75
2023/04/20 03:41:48;;;;;;;25.35;23.00;;;;;;;9.17;62.26;100566.56;5027158;27;97780;-76
2023/04/20 03:44:15;;;;;;;25.70;22.88;;;;;;;9.15;62.15;100570.97;5012925;28;97464;-76
2023/04/20 03:46:41;;;;;;;24.90;22.50;;;;;;;9.16;62.16;100572.66;5012965;28;101484;-75
2023/04/20 03:49:06;;;;;;;25.75;23.42;;;;;;;9.13;62.21;100577.97;5043086;27;100886;-75
2023/04/20 03:51:32;;;;;;;25.40;22.98;;;;;;;9.00;62.32;100557.31;5031252;27;96794;-76
2023/04/20 03:53:57;;;;;;;24.80;22.60;;;;;;;9.17;61.87;100583.13;5040627;27;97349;-75
2023/04/20 03:56:25;;;;;;;25.60;22.75;;;;;;;9.17;62.42;100588.34;5029310;28;101686;-75
2023/04/20 03:58:51;;;;;;;24.92;22.58;;;;;;;9.11;62.48;100572.78;5007153;27;101657;-75
2023/04/20 04:01:21;;;;;;;26.13;23.60;;;;;;;9.23;61.89;100582.13;5018444;28;97350;-75
2023/04/20 04:03:48;;;;;;;25.48;23.33;;;;;;;9.27;62.28;100589.00;5011133;28;96910;-75
2023/04/20 04:06:13;;;;;;;27.50;24.55;;;;;;;9.26;61.86;100584.66;5029435;28;101346;-75
2023/04/20 04:08:39;;;;;;;26.05;23.67;;;;;;;9.26;62.21;100587.28;5010371;28;101793;-77
2023/04/20 04:11:05;;;;;;;24.85;22.67;;;;;;;9.24;61.96;100581.22;5013265;28;96817;-75
2023/04/20 04:13:31;;;;;;;26.13;23.67;;;;;;;9.18;62.02;100584.84;5014253;28;97179;-75
2023/04/20 04:15:57;;;;;;;27.75;23.95;;;;;;;9.07;62.54;100560.66;5008117;28;101494;-77
2023/04/20 04:18:23;;;;;;;25.63;23.25;;;;;;;9.20;62.49;100579.56;5001832;28;101590;-75
2023/04/20 04:20:50;;;;;;;26.75;23.02;;;;;;;9.18;62.70;100573.50;5013336;28;96806;-75
2023/04/20 04:23:16;;;;;;;41.28;25.02;;;;;;;9.04;62.76;100547.63;5013167;28;97519;-75
2023/04/20 04:25:45;;;;;;;25.85;23.27;;;;;;;9.21;62.19;100581.28;4997562;28;101871;-75
2023/04/20 04:28:13;;;;;;;24.92;22.55;;;;;;;9.20;62.64;100575.19;5035685;27;102167;-75
2023/04/20 04:30:47;;;;;;;28.13;25.05;;;;;;;9.16;62.50;100563.06;5012062;27;97261;-75
2023/04/20 04:33:13;;;;;;;26.45;23.88;;;;;;;9.27;62.79;100583.75;5028538;27;97370;-75
2023/04/20 04:35:42;;;;;;;25.35;23.08;;;;;;;9.29;62.47;100589.81;5014090;28;100881;-75
2023/04/20 04:38:11;;;;;;;24.83;22.52;;;;;;;9.31;62.41;100585.41;5012630;28;100561;-75
2023/04/20 04:40:38;;;;;;;26.48;23.88;;;;;;;9.36;62.66;100591.38;5027273;27;96741;-75
2023/04/20 04:43:06;;;;;;;27.05;24.38;;;;;;;9.33;62.32;100594.06;5039974;27;97300;-75
2023/04/20 04:45:39;;;;;;;29.58;26.00;;;;;;;9.37;62.32;100606.22;5013120;28;100554;-75
2023/04/20 04:48:08;;;;;;;31.45;25.27;;;;;;;9.32;62.67;100600.22;4990131;27;98924;-75
2023/04/20 04:50:34;;;;;;;32.10;25.10;;;;;;;9.33;62.75;100601.06;5012561;28;96924;-75
2023/04/20 04:52:59;;;;;;;24.23;21.90;;;;;;;9.29;62.53;100587.19;5029845;27;97137;-75
2023/04/20 04:55:25;;;;;;;26.25;23.50;;;;;;;9.33;62.58;100598.47;5029634;28;97592;-78
2023/04/20 04:57:50;;;;;;;27.17;24.20;;;;;;;9.31;62.64;100590.66;5011308;28;100189;-77
2023/04/20 05:00:16;;;;;;;32.20;23.33;;;;;;;9.30;62.44;100591.53;5011059;28;96872;-75
2023/04/20 05:02:42;;;;;;;26.48;23.85;;;;;;;9.29;62.20;100592.44;5011402;28;96749;-75
2023/04/20 05:05:08;;;;;;;28.73;25.33;;;;;;;9.34;62.83;100597.53;4991305;28;101358;-75
2023/04/20 05:07:34;;;;;;;26.65;24.08;;;;;;;9.29;62.66;100585.44;5006283;28;101790;-75
2023/04/20 05:09:59;;;;;;;27.00;24.17;;;;;;;9.38;62.59;100586.13;5008583;28;97273;-76
2023/04/20 05:12:25;;;;;;;33.58;23.45;;;;;;;9.38;62.90;100597.44;5010356;28;97528;-75
2023/04/20 05:14:51;;;;;;;26.83;24.35;;;;;;;9.39;62.60;100598.31;5011716;28;98020;-76
2023/04/20 05:17:17;;;;;;;26.88;24.38;;;;;;;9.44;62.46;100604.31;5015548;28;97962;-76
2023/04/20 05:19:42;;;;;;;27.50;24.90;;;;;;;9.39;63.10;100601.78;5002776;28;97264;-75
2023/04/20 05:22:08;;;;;;;28.02;25.13;;;;;;;9.38;62.95;100607.06;5005151;27;98607;-77
2023/04/20 05:24:33;;;;;;;30.17;25.65;;;;;;;9.29;63.22;100595.06;5062701;27;97824;-75
2023/04/20 05:27:00;;;;;;;31.70;26.38;;;;;;;9.39;62.80;100604.41;5011372;28;101374;-74
2023/04/20 05:29:26;;;;;;;27.95;25.35;;;;;;;9.41;62.93;100617.47;5011852;28;97067;-75
2023/04/20 05:31:51;;;;;;;27.65;24.42;;;;;;;9.39;63.36;100611.41;5011746;28;97202;-75
2023/04/20 05:34:17;;;;;;;29.38;26.35;;;;;;;9.30;63.14;100599.38;5011248;28;101481;-75
2023/04/20 05:36:42;;;;;;;33.00;26.02;;;;;;;9.41;63.55;100622.72;5023018;28;97758;-87
2023/04/20 05:39:09;;;;;;;32.53;26.75;;;;;;;9.32;63.51;100615.09;5010471;27;96930;-87
2023/04/20 05:41:34;;;;;;;32.22;27.08;;;;;;;9.36;63.54;100621.97;5009966;28;97905;-86
2023/04/20 05:44:00;;;;;;;28.35;25.55;;;;;;;9.23;63.72;100598.69;5008264;28;101572;-85
2023/04/20 05:46:26;;;;;;;29.55;26.50;;;;;;;9.17;64.28;100601.47;5011033;28;98571;-86
2023/04/20 05:48:51;;;;;;;30.15;27.05;;;;;;;9.31;63.94;100611.63;5012610;28;96793;-86
2023/04/20 05:51:17;;;;;;;29.63;26.55;;;;;;;9.35;63.41;100612.38;5012278;28;96894;-85
2023/04/20 05:53:42;;;;;;;30.13;27.02;;;;;;;9.38;64.22;100621.03;5013760;28;100791;-85
2023/04/20 05:56:08;;;;;;;31.23;28.00;;;;;;;9.38;64.26;100620.19;5009636;27;101130;-86
2023/04/20 05:58:36;;;;;;;31.00;27.63;;;;;;;9.25;63.97;100594.28;4996280;28;96984;-85
2023/04/20 06:01:03;;;;;;;30.00;26.98;;;;;;;9.47;63.80;100626.03;5030467;27;97343;-86
2023/04/20 06:03:29;;;;;;;33.10;27.83;;;;;;;9.26;63.81;100598.59;5009857;28;101443;-85
2023/04/20 06:05:54;;;;;;;30.20;27.20;;;;;;;9.47;63.86;100639.16;5008027;28;100186;-85
2023/04/20 06:08:20;;;;;;;31.05;27.23;;;;;;;9.16;63.71;100586.66;5004556;28;96794;-85
2023/04/20 06:10:46;;;;;;;30.42;27.27;;;;;;;9.33;63.85;100615.03;5008873;28;97093;-85
2023/04/20 06:13:11;;;;;;;30.33;27.30;;;;;;;9.49;63.67;100641.75;4993936;28;101220;-85
2023/04/20 06:15:37;;;;;;;34.60;27.85;;;;;;;9.20;64.62;100597.91;4992739;28;101158;-85
2023/04/20 06:18:03;;;;;;;30.27;27.23;;;;;;;9.46;64.55;100633.97;5003808;28;97128;-85
2023/04/20 06:20:28;;;;;;;31.50;28.50;;;;;;;9.43;64.52;100632.25;4993208;28;97080;-85
2023/04/20 06:22:55;;;;;;;31.13;28.00;;;;;;;9.17;64.68;100592.75;5009624;28;99598;-85
2023/04/20 06:25:20;;;;;;;30.67;27.48;;;;;;;9.47;64.75;100646.16;5015719;28;99773;-85
2023/04/20 06:27:46;;;;;;;30.23;27.33;;;;;;;9.23;64.18;100601.31;5012301;27;97441;-86
2023/04/20 06:30:12;;;;;;;32.08;28.65;;;;;;;9.25;64.20;100610.00;5017644;28;96874;-85
2023/04/20 06:32:38;;;;;;;30.52;27.35;;;;;;;9.17;64.02;100593.59;4997734;28;101577;-85
2023/04/20 06:35:07;;;;;;;34.72;28.35;;;;;;;9.40;64.70;100632.34;5012792;28;101135;-85
2023/04/20 06:37:34;;;;;;;34.92;27.85;;;;;;;9.61;64.87;100657.16;5007942;28;97145;-85
2023/04/20 06:40:00;;;;;;;31.80;28.38;;;;;;;9.37;64.60;100626.31;5007925;28;96772;-82
2023/04/20 06:42:26;;;;;;;28.58;24.15;;;;;;;9.62;64.82;100664.13;5007247;28;101049;-82
2023/04/20 06:44:51;;;;;;;29.40;20.27;;;;;;;9.71;65.32;100658.63;5007531;28;99740;-82
2023/04/20 06:47:17;;;;;;;42.78;27.65;;;;;;;9.70;64.59;100658.69;5000838;28;98146;-85
2023/04/20 06:49:42;;;;;;;31.70;27.60;;;;;;;9.72;65.18;100663.00;5014216;28;97381;-83
2023/04/20 06:52:08;;;;;;;35.42;29.45;;;;;;;9.75;65.00;100662.91;5010680;28;101870;-83
2023/04/20 06:54:33;;;;;;;33.60;29.50;;;;;;;9.76;65.13;100663.78;5044658;27;101370;-87
2023/04/20 06:57:00;;;;;;;36.78;32.05;;;;;;;9.77;65.19;100662.88;4996606;27;98038;-88
2023/04/20 06:59:25;;;;;;;33.72;29.38;;;;;;;9.77;64.68;100662.00;5033412;27;97610;-90
2023/04/20 07:01:51;;;;;;;32.03;28.60;;;;;;;9.68;64.44;100650.00;5010080;28;101857;-89
2023/04/20 07:04:16;;;;;;;33.22;29.02;;;;;;;9.80;64.81;100668.03;5002670;27;99974;-91
2023/04/20 07:06:42;;;;;;;33.05;29.38;;;;;;;9.67;65.48;100636.03;5014223;28;96864;-91
2023/04/20 07:09:08;;;;;;;34.67;30.55;;;;;;;9.77;64.97;100657.63;4987595;28;97254;-83
2023/04/20 07:11:33;;;;;;;33.88;30.33;;;;;;;9.87;65.36;100658.28;5015785;28;100742;-89
2023/04/20 07:14:02;;;;;;;32.17;28.77;;;;;;;9.94;65.21;100657.19;5034016;27;98506;-90
2023/04/20 07:16:27;;;;;;;33.00;29.60;;;;;;;9.98;65.76;100664.09;5017015;27;97125;-89
2023/04/20 07:18:53;;;;;;;40.30;31.08;;;;;;;10.05;65.21;100667.41;5013245;27;98393;-87
2023/04/20 07:21:18;;;;;;;34.97;31.20;;;;;;;10.02;64.85;100670.13;5041046;27;100844;-81
2023/04/20 07:23:44;;;;;;;34.80;31.08;;;;;;;10.01;64.75;100671.88;5028307;27;101327;-81
2023/04/20 07:26:10;;;;;;;33.63;30.00;;;;;;;10.05;65.33;100668.28;5021707;28;96783;-78
2023/04/20 07:28:36;;;;;;;35.15;31.33;;;;;;;10.01;65.05;100653.53;5028892;27;96909;-82
2023/04/20 07:31:01;;;;;;;38.03;30.65;;;;;;;9.99;65.20;100636.97;5013937;28;98255;-83
2023/04/20 07:33:28;;;;;;;35.40;31.33;;;;;;;10.17;64.88;100648.72;4991837;27;101611;-85
2023/04/20 07:35:54;;;;;;;36.20;32.33;;;;;;;10.20;65.29;100653.88;5045991;27;97314;-84
2023/04/20 07:38:19;;;;;;;35.30;31.27;;;;;;;10.36;65.32;100667.50;5013706;28;97056;-83
2023/04/20 07:40:45;;;;;;;40.00;32.45;;;;;;;10.33;65.19;100668.44;5013254;28;101105;-83
2023/04/20 07:43:10;;;;;;;39.67;33.08;;;;;;;10.39;65.35;100676.13;5007838;28;101737;-84
2023/04/20 07:45:38;;;;;;;38.60;33.88;;;;;;;10.39;65.28;100676.13;5059031;27;97731;-83
2023/04/20 07:48:04;;;;;;;35.60;31.88;;;;;;;10.17;64.65;100644.31;5028133;28;96915;-83
2023/04/20 07:50:29;;;;;;;36.55;32.63;;;;;;;10.26;65.00;100668.59;5017700;28;97612;-83
2023/04/20 07:52:55;;;;;;;37.33;33.40;;;;;;;10.19;65.28;100674.00;5028182;27;98472;-84
2023/04/20 07:55:21;;;;;;;40.80;34.05;;;;;;;10.19;65.02;100668.75;5026958;27;97421;-83
2023/04/20 07:57:47;;;;;;;40.13;34.10;;;;;;;10.16;65.17;100658.34;5010501;28;96992;-84
2023/04/20 08:00:15;;;;;;;39.38;33.67;;;;;;;10.14;64.71;100659.28;5046200;27;101495;-83
2023/04/20 08:02:43;;;;;;;42.25;33.95;;;;;;;10.31;64.76;100679.88;5024939;28;101295;-84
2023/04/20 08:05:09;;;;;;;40.75;33.58;;;;;;;10.36;65.32;100683.25;5010938;28;97526;-84
2023/04/20 08:07:34;;;;;;;36.47;32.58;;;;;;;10.36;65.04;100678.00;5008945;28;96885;-84
2023/04/20 08:10:01;;;;;;;38.78;33.67;;;;;;;10.28;65.29;100659.81;5046579;27;101305;-84
2023/04/20 08:12:27;;;;;;;35.97;31.45;;;;;;;10.36;65.43;100668.34;5012314;28;101567;-84
2023/04/20 08:14:52;;;;;;;42.25;33.75;;;;;;;10.40;64.95;100675.22;5030245;28;96796;-84
2023/04/20 08:17:18;;;;;;;36.97;32.78;;;;;;;10.50;65.44;100677.59;5013448;28;97005;-84
2023/04/20 08:19:43;;;;;;;35.92;31.70;;;;;;;10.61;65.33;100676.38;5013072;28;98806;-89
2023/04/20 08:22:11;;;;;;;34.95;31.17;;;;;;;10.57;65.12;100661.63;5031652;28;98335;-85
2023/04/20 08:24:37;;;;;;;36.70;32.60;;;;;;;10.80;65.34;100676.72;5009829;28;97649;-86
2023/04/20 08:27:02;;;;;;;39.53;34.97;;;;;;;10.83;65.65;100675.78;5029643;28;96744;-86
2023/04/20 08:29:28;;;;;;;39.30;33.53;;;;;;;10.83;66.01;100670.53;5012088;28;101315;-84
2023/04/20 08:31:53;;;;;;;38.85;34.65;;;;;;;10.80;66.01;100686.38;5018425;28;101326;-84
2023/04/20 08:34:20;;;;;;;38.45;32.53;;;;;;;10.73;65.45;100667.28;5006938;28;97982;-84
2023/04/20 08:36:46;;;;;;;38.50;34.20;;;;;;;10.78;65.64;100677.66;5012343;28;97678;-84
2023/04/20 08:39:18;;;;;;;40.90;34.92;;;;;;;10.78;66.06;100670.63;5001610;28;101117;-85
2023/04/20 08:41:43;;;;;;;;;;;;;;;10.80;66.03;100676.72;5027413;28;97948;-85
2023/04/20 08:44:09;;;;;;;39.03;33.63;;;;;;;10.82;66.46;100679.28;5013316;28;96900;-85
2023/04/20 08:46:34;;;;;;;37.42;33.20;;;;;;;10.86;66.30;100687.03;5028445;27;96942;-85
2023/04/20 08:49:03;;;;;;;37.55;33.35;;;;;;;10.85;65.84;100666.94;5009341;28;101111;-85
2023/04/20 08:51:32;;;;;;;38.03;33.08;;;;;;;11.02;66.04;100681.31;5036101;27;98638;-85
2023/04/20 08:54:04;;;;;;;36.75;32.05;;;;;;;10.71;66.46;100631.50;5011959;28;97093;-85
2023/04/20 08:56:38;;;;;;;39.97;32.63;;;;;;;11.17;66.36;100669.47;5008867;28;96922;-85
2023/04/20 08:59:04;;;;;;;37.95;31.88;;;;;;;11.09;66.16;100646.09;5022902;28;101636;-85
2023/04/20 09:01:31;;;;;;;36.13;30.35;;;;;;;11.47;65.82;100667.69;4998339;28;101197;-85
2023/04/20 09:03:58;;;;;;;34.58;30.33;;;;;;;11.79;64.70;100667.47;5017414;28;97180;-85
2023/04/20 09:06:23;;;;;;;32.33;28.92;;;;;;;12.40;63.81;100655.75;5011679;28;97187;-85
2023/04/20 09:08:49;;;;;;;33.25;29.13;;;;;;;13.04;62.06;100663.88;5012658;28;101495;-85
2023/04/20 09:11:26;;;;;;;32.50;29.10;;;;;;;13.69;60.25;100666.59;4994809;28;101019;-85
2023/04/20 09:14:08;;;;;;;33.75;28.35;;;;;;;14.13;57.67;100661.22;5009771;28;97834;-84
2023/04/20 09:17:00;;;;;;;32.03;28.58;;;;;;;14.06;58.21;100654.50;5043606;27;96801;-83
2023/04/20 09:19:30;;;;;;;32.47;29.00;;;;;;;13.75;58.19;100656.63;5004926;28;101833;-84
2023/04/20 09:21:58;;;;;;;32.20;28.40;;;;;;;13.57;58.75;100675.88;5006392;28;101875;-84
2023/04/20 09:24:30;;;;;;;31.52;28.23;;;;;;;13.42;59.05;100681.78;5025424;28;96880;-84
2023/04/20 09:26:56;;;;;;;32.58;29.05;;;;;;;13.25;60.00;100656.94;5003323;28;97352;-84
2023/04/20 09:29:23;;;;;;;35.60;28.02;;;;;;;13.22;60.43;100672.84;5025453;27;101477;-83
2023/04/20 09:31:49;;;;;;;31.77;28.33;;;;;;;13.19;60.63;100685.28;5009323;28;101160;-84
2023/04/20 09:34:15;;;;;;;31.58;28.13;;;;;;;13.21;59.93;100683.47;5037234;27;97111;-84
2023/04/20 09:36:45;;;;;;;30.20;27.17;;;;;;;13.14;60.33;100673.13;4988829;28;96974;-83
2023/04/20 09:39:14;;;;;;;29.10;26.15;;;;;;;12.99;60.78;100652.66;5025314;27;100084;-84
2023/04/20 09:41:40;;;;;;;33.40;27.00;;;;;;;13.49;60.34;100680.59;5009998;28;101442;-84
2023/04/20 09:44:07;;;;;;;32.22;27.42;;;;;;;13.70;58.55;100676.22;5023141;28;97292;-84
2023/04/20 09:46:34;;;;;;;30.73;27.55;;;;;;;13.90;58.38;100662.19;5000769;28;97291;-84
2023/04/20 09:49:04;;;;;;;29.67;26.88;;;;;;;14.08;57.54;100648.22;5012317;28;97436;-84
2023/04/20 09:51:31;;;;;;;30.67;27.10;;;;;;;14.14;57.54;100647.97;5042928;27;97533;-84
2023/04/20 09:53:59;;;;;;;29.52;26.42;;;;;;;14.13;57.62;100650.66;5022375;28;97414;-84
2023/04/20 09:56:26;;;;;;;29.48;26.25;;;;;;;14.13;57.55;100655.94;5011622;28;96750;-83
2023/04/20 09:58:53;;;;;;;29.90;26.83;;;;;;;13.73;58.02;100652.34;5018178;28;102014;-82
2023/04/20 10:01:19;;;;;;;27.90;25.00;;;;;;;13.75;57.88;100646.09;5041361;27;101517;-82
2023/04/20 10:03:45;;;;;;;29.25;26.15;;;;;;;13.98;58.17;100660.09;5014648;28;97314;-82
2023/04/20 10:06:24;;;;;;;29.40;26.20;;;;;;;14.13;58.10;100654.16;5006071;28;97321;-82
2023/04/20 10:08:50;;;;;;;29.63;26.55;;;;;;;14.35;57.05;100653.22;5018849;28;97634;-84
2023/04/20 10:11:33;;;;;;;28.10;25.20;;;;;;;14.15;56.98;100649.66;5004909;28;100937;-82
2023/04/20 10:14:16;;;;;;;29.05;26.05;;;;;;;14.29;56.44;100642.94;5014050;28;96905;-82
2023/04/20 10:16:42;;;;;;;29.60;26.60;;;;;;;14.46;56.76;100648.31;5031996;28;97552;-79
2023/04/20 10:19:07;;;;;;;31.10;27.15;;;;;;;14.63;56.52;100647.56;5032814;28;98014;-81
2023/04/20 10:21:47;;;;;;;31.70;28.40;;;;;;;14.67;56.36;100642.09;5011826;28;97480;-84
2023/04/20 10:24:13;;;;;;;30.90;27.67;;;;;;;14.77;56.91;100644.31;5015750;28;96800;-78
2023/04/20 10:26:47;;;;;;;30.80;27.65;;;;;;;14.72;56.13;100633.97;5023261;28;96896;-79
2023/04/20 10:29:27;;;;;;;30.17;27.15;;;;;;;14.62;55.94;100641.44;5032342;27;101027;-79
2023/04/20 10:31:53;;;;;;;29.20;26.10;;;;;;;14.52;56.35;100639.31;4988354;28;99514;-78
2023/04/20 10:34:33;;;;;;;29.63;26.70;;;;;;;14.53;55.89;100646.28;5037499;27;96826;-78
2023/04/20 10:37:09;;;;;;;32.88;27.52;;;;;;;14.32;56.17;100642.81;5023221;28;96886;-78
2023/04/20 10:39:36;;;;;;;30.85;27.70;;;;;;;14.11;56.60;100626.97;5019963;28;98132;-78
2023/04/20 10:42:02;;;;;;;32.47;28.42;;;;;;;14.13;56.87;100637.44;5009342;28;101511;-78
2023/04/20 10:44:29;;;;;;;32.58;27.67;;;;;;;14.21;57.51;100644.13;5000462;28;96759;-79
2023/04/20 10:46:55;;;;;;;32.25;27.95;;;;;;;14.26;57.14;100636.00;5008264;28;96811;-78
2023/04/20 10:49:26;;;;;;;33.95;28.60;;;;;;;14.34;57.05;100636.53;5010200;28;99018;-78
2023/04/20 10:51:52;;;;;;;33.63;30.15;;;;;;;14.42;56.76;100625.59;5038955;27;98571;-78
2023/04/20 10:54:18;;;;;;;31.77;28.48;;;;;;;14.45;57.10;100630.75;5009204;28;96798;-79
2023/04/20 10:56:51;;;;;;;31.58;28.23;;;;;;;14.48;57.28;100620.88;5029013;28;97504;-78
2023/04/20 10:59:19;;;;;;;31.77;28.63;;;;;;;14.51;56.94;100614.63;5013725;28;97593;-81
2023/04/20 11:01:45;;;;;;;30.30;27.00;;;;;;;14.54;56.98;100618.94;4994250;28;101931;-78
2023/04/20 11:04:12;;;;;;;33.65;26.95;;;;;;;14.57;57.66;100613.50;5029474;28;97287;-79
2023/04/20 11:06:39;;;;;;;30.92;27.70;;;;;;;14.65;57.54;100611.38;5023285;28;97516;-83
2023/04/20 11:09:27;;;;;;;36.65;27.77;;;;;;;14.48;57.18;100607.69;5044869;27;98700;-83
2023/04/20 11:11:58;;;;;;;28.38;25.20;;;;;;;14.50;56.62;100607.63;5029148;27;101401;-81